sensor_id;sensor_type;location;lat;lon;timestamp;pressure;altitude;pressure_sealevel;temperature;humidity
8416;BME280;4245;42.120;24.732;2023-05-10T00:00:11;99745.78;;;12.13;100.00
8416;BME280;4245;42.120;24.732;2023-05-10T00:02:38;99750.97;;;12.02;100.00
8416;BME280;4245;42.120;24.732;2023-05-10T00:05:06;99748.09;;;12.05;100.00
8416;BME280;4245;42.120;24.732;2023-05-10T00:07:33;99742.25;;;12.13;100.00
8416;BME280;4245;42.120;24.732;2023-05-10T00:10:00;99750.47;;;12.10;100.00
8416;BME280;4245;42.120;24.732;2023-05-10T00:12:27;99741.19;;;12.15;100.00
8416;BME280;4245;42.120;24.732;2023-05-10T00:14:55;99732.88;;;12.07;100.00
8416;BME280;4245;42.120;24.732;2023-05-10T00:17:22;99731.94;;;12.08;100.00
8416;BME280;4245;42.120;24.732;2023-05-10T00:19:49;99734.06;;;12.03;100.00
8416;BME280;4245;42.120;24.732;2023-05-10T00:22:15;99733.44;;;12.00;100.00
8416;BME280;4245;42.120;24.732;2023-05-10T00:24:42;99734.69;;;11.94;100.00
8416;BME280;4245;42.120;24.732;2023-05-10T00:27:09;99740.97;;;11.93;100.00
8416;BME280;4245;42.120;24.732;2023-05-10T00:29:36;99735.00;;;12.02;100.00
8416;BME280;4245;42.120;24.732;2023-05-10T00:32:04;99733.63;;;11.97;100.00
8416;BME280;4245;42.120;24.732;2023-05-10T00:34:31;99726.91;;;11.91;100.00
8416;BME280;4245;42.120;24.732;2023-05-10T00:36:58;99731.28;;;11.92;100.00
8416;BME280;4245;42.120;24.732;2023-05-10T00:39:24;99729.78;;;11.88;100.00
8416;BME280;4245;42.120;24.732;2023-05-10T00:41:52;99729.78;;;11.88;100.00
8416;BME280;4245;42.120;24.732;2023-05-10T00:44:18;99726.56;;;11.83;100.00
8416;BME280;4245;42.120;24.732;2023-05-10T00:46:46;99720.22;;;11.86;100.00
8416;BME280;4245;42.120;24.732;2023-05-10T00:49:15;99720.22;;;11.86;100.00
8416;BME280;4245;42.120;24.732;2023-05-10T00:51:42;99724.13;;;11.80;100.00
8416;BME280;4245;42.120;24.732;2023-05-10T00:54:11;99719.59;;;11.68;100.00
8416;BME280;4245;42.120;24.732;2023-05-10T00:56:38;99725.94;;;11.80;100.00
8416;BME280;4245;42.120;24.732;2023-05-10T00:59:05;99724.53;;;11.74;100.00
8416;BME280;4245;42.120;24.732;2023-05-10T01:01:32;99726.97;;;11.77;100.00
8416;BME280;4245;42.120;24.732;2023-05-10T01:03:59;99731.84;;;11.70;100.00
8416;BME280;4245;42.120;24.732;2023-05-10T01:06:27;99726.25;;;11.75;100.00
8416;BME280;4245;42.120;24.732;2023-05-10T01:08:54;99733.28;;;11.76;100.00
8416;BME280;4245;42.120;24.732;2023-05-10T01:11:22;99732.00;;;11.82;100.00
8416;BME280;4245;42.120;24.732;2023-05-10T01:13:54;99730.00;;;11.85;100.00
8416;BME280;4245;42.120;24.732;2023-05-10T01:16:22;99730.38;;;11.66;100.00
8416;BME280;4245;42.120;24.732;2023-05-10T01:18:49;99733.66;;;11.70;100.00
8416;BME280;4245;42.120;24.732;2023-05-10T01:21:22;99733.53;;;11.71;100.00
8416;BME280;4245;42.120;24.732;2023-05-10T01:24:23;99741.66;;;11.70;100.00
8416;BME280;4245;42.120;24.732;2023-05-10T01:27:07;99731.56;;;11.75;100.00
8416;BME280;4245;42.120;24.732;2023-05-10T01:32:45;99729.16;;;11.58;100.00
8416;BME280;4245;42.120;24.732;2023-05-10T01:35:17;99732.34;;;11.63;100.00
8416;BME280;4245;42.120;24.732;2023-05-10T01:37:50;99737.38;;;11.67;100.00
8416;BME280;4245;42.120;24.732;2023-05-10T01:40:23;99733.31;;;11.62;100.00
8416;BME280;4245;42.120;24.732;2023-05-10T01:42:53;99732.78;;;11.57;100.00
8416;BME280;4245;42.120;24.732;2023-05-10T01:45:27;99731.56;;;11.48;100.00
8416;BME280;4245;42.120;24.732;2023-05-10T01:48:03;99728.91;;;11.48;100.00
8416;BME280;4245;42.120;24.732;2023-05-10T01:50:32;99729.59;;;11.64;100.00
8416;BME280;4245;42.120;24.732;2023-05-10T01:53:01;99725.94;;;11.53;100.00
8416;BME280;4245;42.120;24.732;2023-05-10T01:55:30;99726.78;;;11.53;100.00
8416;BME280;4245;42.120;24.732;2023-05-10T01:58:02;99728.28;;;11.45;100.00
8416;BME280;4245;42.120;24.732;2023-05-10T02:00:31;99722.66;;;11.49;100.00
8416;BME280;4245;42.120;24.732;2023-05-10T02:03:00;99724.75;;;11.44;100.00
8416;BME280;4245;42.120;24.732;2023-05-10T02:05:30;99731.75;;;11.32;100.00
8416;BME280;4245;42.120;24.732;2023-05-10T02:07:59;99723.72;;;11.20;100.00
8416;BME280;4245;42.120;24.732;2023-05-10T02:10:27;99734.16;;;11.23;100.00
8416;BME280;4245;42.120;24.732;2023-05-10T02:12:55;99737.06;;;11.32;100.00
8416;BME280;4245;42.120;24.732;2023-05-10T02:15:26;99736.97;;;11.34;100.00
8416;BME280;4245;42.120;24.732;2023-05-10T02:17:55;99742.41;;;11.32;100.00
8416;BME280;4245;42.120;24.732;2023-05-10T02:20:24;99747.72;;;11.32;100.00
8416;BME280;4245;42.120;24.732;2023-05-10T02:22:54;99735.16;;;11.34;100.00
8416;BME280;4245;42.120;24.732;2023-05-10T02:25:22;99746.00;;;11.31;100.00
8416;BME280;4245;42.120;24.732;2023-05-10T02:27:50;99743.53;;;11.28;100.00
8416;BME280;4245;42.120;24.732;2023-05-10T02:30:18;99740.31;;;11.23;100.00
8416;BME280;4245;42.120;24.732;2023-05-10T02:32:47;99742.03;;;11.24;100.00
8416;BME280;4245;42.120;24.732;2023-05-10T02:35:16;99744.13;;;11.19;100.00
8416;BME280;4245;42.120;24.732;2023-05-10T02:37:45;99742.97;;;11.23;100.00
8416;BME280;4245;42.120;24.732;2023-05-10T02:40:15;99737.22;;;11.17;100.00
8416;BME280;4245;42.120;24.732;2023-05-10T02:42:44;99747.47;;;11.23;100.00
8416;BME280;4245;42.120;24.732;2023-05-10T02:45:13;99744.13;;;11.19;100.00
8416;BME280;4245;42.120;24.732;2023-05-10T02:47:42;99746.91;;;11.18;100.00
8416;BME280;4245;42.120;24.732;2023-05-10T02:50:09;99743.56;;;11.14;100.00
8416;BME280;4245;42.120;24.732;2023-05-10T02:52:39;99750.59;;;11.15;100.00
8416;BME280;4245;42.120;24.732;2023-05-10T02:55:11;99750.00;;;11.24;100.00
8416;BME280;4245;42.120;24.732;2023-05-10T02:57:41;99740.53;;;11.20;100.00
8416;BME280;4245;42.120;24.732;2023-05-10T03:00:10;99740.31;;;11.23;100.00
8416;BME280;4245;42.120;24.732;2023-05-10T03:02:37;99747.03;;;11.29;100.00
8416;BME280;4245;42.120;24.732;2023-05-10T03:05:04;99742.00;;;11.12;100.00
8416;BME280;4245;42.120;24.732;2023-05-10T03:07:32;99740.47;;;11.08;100.00
8416;BME280;4245;42.120;24.732;2023-05-10T03:10:00;99742.63;;;11.15;100.00
8416;BME280;4245;42.120;24.732;2023-05-10T03:12:50;99745.94;;;11.19;100.00
8416;BME280;4245;42.120;24.732;2023-05-10T03:15:24;99741.03;;;11.13;100.00
8416;BME280;4245;42.120;24.732;2023-05-10T03:17:57;99745.19;;;11.17;100.00
8416;BME280;4245;42.120;24.732;2023-05-10T03:20:31;99748.13;;;11.26;100.00
8416;BME280;4245;42.120;24.732;2023-05-10T03:23:02;99747.75;;;11.18;100.00
8416;BME280;4245;42.120;24.732;2023-05-10T03:25:31;99748.16;;;11.12;100.00
8416;BME280;4245;42.120;24.732;2023-05-10T03:28:01;99756.00;;;11.14;100.00
8416;BME280;4245;42.120;24.732;2023-05-10T03:30:28;99754.03;;;11.17;100.00
8416;BME280;4245;42.120;24.732;2023-05-10T03:32:55;99752.31;;;11.16;100.00
8416;BME280;4245;42.120;24.732;2023-05-10T03:35:23;99753.91;;;11.19;100.00
8416;BME280;4245;42.120;24.732;2023-05-10T03:37:50;99757.09;;;11.11;100.00
8416;BME280;4245;42.120;24.732;2023-05-10T03:40:17;99760.50;;;11.13;100.00
8416;BME280;4245;42.120;24.732;2023-05-10T03:42:43;99759.81;;;11.10;100.00
8416;BME280;4245;42.120;24.732;2023-05-10T03:45:12;99766.84;;;11.11;100.00
8416;BME280;4245;42.120;24.732;2023-05-10T03:47:38;99765.28;;;11.08;100.00
8416;BME280;4245;42.120;24.732;2023-05-10T03:50:07;99766.78;;;11.12;100.00
8416;BME280;4245;42.120;24.732;2023-05-10T03:52:34;99768.28;;;11.16;100.00
8416;BME280;4245;42.120;24.732;2023-05-10T03:55:00;99777.09;;;11.17;100.00
8416;BME280;4245;42.120;24.732;2023-05-10T03:57:28;99773.84;;;11.26;100.00
8416;BME280;4245;42.120;24.732;2023-05-10T03:59:55;99776.59;;;11.24;100.00
8416;BME280;4245;42.120;24.732;2023-05-10T04:02:23;99771.19;;;11.26;100.00
8416;BME280;4245;42.120;24.732;2023-05-10T04:04:50;99777.91;;;11.31;100.00
8416;BME280;4245;42.120;24.732;2023-05-10T04:07:17;99786.00;;;11.30;100.00
8416;BME280;4245;42.120;24.732;2023-05-10T04:09:44;99784.75;;;11.36;100.00
8416;BME280;4245;42.120;24.732;2023-05-10T04:12:10;99787.19;;;11.39;100.00
8416;BME280;4245;42.120;24.732;2023-05-10T04:14:37;99782.59;;;11.67;100.00
8416;BME280;4245;42.120;24.732;2023-05-10T04:17:04;99779.84;;;11.69;100.00
8416;BME280;4245;42.120;24.732;2023-05-10T04:19:32;99783.97;;;11.87;100.00
8416;BME280;4245;42.120;24.732;2023-05-10T04:21:59;99792.03;;;11.73;100.00
8416;BME280;4245;42.120;24.732;2023-05-10T04:24:26;99788.09;;;11.79;100.00
8416;BME280;4245;42.120;24.732;2023-05-10T04:26:54;99787.06;;;11.81;100.00
8416;BME280;4245;42.120;24.732;2023-05-10T04:29:21;99786.94;;;11.83;100.00
8416;BME280;4245;42.120;24.732;2023-05-10T04:31:48;99794.38;;;11.77;100.00
8416;BME280;4245;42.120;24.732;2023-05-10T04:34:16;99795.16;;;11.92;100.00
8416;BME280;4245;42.120;24.732;2023-05-10T04:36:44;99790.00;;;12.41;100.00
8416;BME280;4245;42.120;24.732;2023-05-10T04:39:11;99793.06;;;12.86;100.00
8416;BME280;4245;42.120;24.732;2023-05-10T04:41:39;99798.78;;;13.05;100.00
8416;BME280;4245;42.120;24.732;2023-05-10T04:44:05;99800.75;;;13.27;100.00
8416;BME280;4245;42.120;24.732;2023-05-10T04:46:32;99806.47;;;12.97;100.00
8416;BME280;4245;42.120;24.732;2023-05-10T04:48:59;99791.94;;;13.14;100.00
8416;BME280;4245;42.120;24.732;2023-05-10T04:51:26;99798.88;;;13.03;100.00
8416;BME280;4245;42.120;24.732;2023-05-10T04:53:55;99804.97;;;13.05;100.00
8416;BME280;4245;42.120;24.732;2023-05-10T04:56:22;99800.75;;;12.78;100.00
8416;BME280;4245;42.120;24.732;2023-05-10T04:58:49;99805.03;;;12.68;100.00
8416;BME280;4245;42.120;24.732;2023-05-10T05:01:16;99803.00;;;12.71;100.00
8416;BME280;4245;42.120;24.732;2023-05-10T05:03:43;99809.25;;;12.95;100.00
8416;BME280;4245;42.120;24.732;2023-05-10T05:06:09;99809.44;;;13.05;100.00
8416;BME280;4245;42.120;24.732;2023-05-10T05:08:36;99811.09;;;13.31;100.00
8416;BME280;4245;42.120;24.732;2023-05-10T05:11:04;99813.50;;;13.71;100.00
8416;BME280;4245;42.120;24.732;2023-05-10T05:13:31;99807.88;;;13.39;100.00
8416;BME280;4245;42.120;24.732;2023-05-10T05:16:00;99812.78;;;13.45;100.00
8416;BME280;4245;42.120;24.732;2023-05-10T05:18:27;99815.38;;;13.58;100.00
8416;BME280;4245;42.120;24.732;2023-05-10T05:20:54;99817.19;;;13.81;100.00
8416;BME280;4245;42.120;24.732;2023-05-10T05:23:21;99807.81;;;14.10;100.00
8416;BME280;4245;42.120;24.732;2023-05-10T05:25:51;99812.31;;;13.99;100.00
8416;BME280;4245;42.120;24.732;2023-05-10T05:28:19;99804.09;;;14.13;100.00
8416;BME280;4245;42.120;24.732;2023-05-10T05:30:46;99808.41;;;14.03;100.00
8416;BME280;4245;42.120;24.732;2023-05-10T05:33:14;99802.25;;;13.78;100.00
8416;BME280;4245;42.120;24.732;2023-05-10T05:35:41;99814.41;;;13.82;100.00
8416;BME280;4245;42.120;24.732;2023-05-10T05:38:12;99797.31;;;13.61;100.00
8416;BME280;4245;42.120;24.732;2023-05-10T05:40:39;99806.94;;;13.64;100.00
8416;BME280;4245;42.120;24.732;2023-05-10T05:43:06;99811.31;;;13.65;100.00
8416;BME280;4245;42.120;24.732;2023-05-10T05:45:34;99805.28;;;13.50;100.00
8416;BME280;4245;42.120;24.732;2023-05-10T05:48:01;99813.00;;;13.66;100.00
8416;BME280;4245;42.120;24.732;2023-05-10T05:50:28;99818.91;;;13.82;100.00
8416;BME280;4245;42.120;24.732;2023-05-10T05:52:54;99824.13;;;13.83;100.00
8416;BME280;4245;42.120;24.732;2023-05-10T05:55:22;99824.59;;;13.77;100.00
8416;BME280;4245;42.120;24.732;2023-05-10T05:57:49;99830.34;;;13.95;100.00
8416;BME280;4245;42.120;24.732;2023-05-10T06:00:16;99833.72;;;13.86;100.00
8416;BME280;4245;42.120;24.732;2023-05-10T06:02:44;99822.97;;;13.99;100.00
8416;BME280;4245;42.120;24.732;2023-05-10T06:05:11;99819.56;;;13.97;100.00
8416;BME280;4245;42.120;24.732;2023-05-10T06:07:39;99818.72;;;13.96;100.00
8416;BME280;4245;42.120;24.732;2023-05-10T06:10:07;99826.31;;;14.13;100.00
8416;BME280;4245;42.120;24.732;2023-05-10T06:12:34;99828.25;;;14.11;100.00
8416;BME280;4245;42.120;24.732;2023-05-10T06:15:01;99818.00;;;14.05;100.00
8416;BME280;4245;42.120;24.732;2023-05-10T06:17:28;99815.41;;;14.27;100.00
8416;BME280;4245;42.120;24.732;2023-05-10T06:19:56;99820.84;;;14.61;100.00
8416;BME280;4245;42.120;24.732;2023-05-10T06:22:23;99832.66;;;15.14;100.00
8416;BME280;4245;42.120;24.732;2023-05-10T06:24:50;99838.88;;;15.03;100.00
8416;BME280;4245;42.120;24.732;2023-05-10T06:27:17;99839.22;;;14.99;100.00
8416;BME280;4245;42.120;24.732;2023-05-10T06:29:44;99839.72;;;15.04;100.00
8416;BME280;4245;42.120;24.732;2023-05-10T06:32:10;99847.00;;;15.24;100.00
8416;BME280;4245;42.120;24.732;2023-05-10T06:34:37;99854.28;;;15.22;100.00
8416;BME280;4245;42.120;24.732;2023-05-10T06:37:05;99848.47;;;15.28;100.00
8416;BME280;4245;42.120;24.732;2023-05-10T06:39:32;99850.03;;;15.31;100.00
8416;BME280;4245;42.120;24.732;2023-05-10T06:41:59;99853.06;;;15.48;100.00
8416;BME280;4245;42.120;24.732;2023-05-10T06:47:02;99849.06;;;15.32;100.00
8416;BME280;4245;42.120;24.732;2023-05-10T06:49:29;99845.56;;;15.20;100.00
8416;BME280;4245;42.120;24.732;2023-05-10T06:51:56;99851.72;;;15.20;100.00
8416;BME280;4245;42.120;24.732;2023-05-10T06:54:24;99838.66;;;15.49;100.00
8416;BME280;4245;42.120;24.732;2023-05-10T06:56:51;99841.56;;;15.69;100.00
8416;BME280;4245;42.120;24.732;2023-05-10T06:59:18;99846.22;;;15.67;100.00
8416;BME280;4245;42.120;24.732;2023-05-10T07:01:44;99846.50;;;15.52;100.00
8416;BME280;4245;42.120;24.732;2023-05-10T07:04:11;99850.50;;;15.47;100.00
8416;BME280;4245;42.120;24.732;2023-05-10T07:06:38;99853.06;;;15.37;100.00
8416;BME280;4245;42.120;24.732;2023-05-10T07:09:05;99850.72;;;15.66;100.00
8416;BME280;4245;42.120;24.732;2023-05-10T07:11:34;99853.78;;;15.73;100.00
8416;BME280;4245;42.120;24.732;2023-05-10T07:14:01;99851.38;;;15.90;100.00
8416;BME280;4245;42.120;24.732;2023-05-10T07:16:28;99848.06;;;15.66;100.00
8416;BME280;4245;42.120;24.732;2023-05-10T07:18:55;99846.72;;;15.60;100.00
8416;BME280;4245;42.120;24.732;2023-05-10T07:21:21;99846.50;;;15.52;100.00
8416;BME280;4245;42.120;24.732;2023-05-10T07:23:49;99841.38;;;15.60;100.00
8416;BME280;4245;42.120;24.732;2023-05-10T07:26:16;99850.81;;;15.76;100.00
8416;BME280;4245;42.120;24.732;2023-05-10T07:28:45;99850.13;;;15.62;100.00
8416;BME280;4245;42.120;24.732;2023-05-10T07:31:12;99848.75;;;15.79;100.00
8416;BME280;4245;42.120;24.732;2023-05-10T07:33:39;99858.53;;;16.01;100.00
8416;BME280;4245;42.120;24.732;2023-05-10T07:36:06;99859.22;;;16.14;100.00
8416;BME280;4245;42.120;24.732;2023-05-10T07:38:33;99862.78;;;16.35;100.00
8416;BME280;4245;42.120;24.732;2023-05-10T07:40:59;99866.22;;;16.26;100.00
8416;BME280;4245;42.120;24.732;2023-05-10T07:43:26;99870.22;;;16.00;100.00
8416;BME280;4245;42.120;24.732;2023-05-10T07:45:54;99862.38;;;16.08;100.00
8416;BME280;4245;42.120;24.732;2023-05-10T07:48:22;99875.72;;;15.98;90.72
8416;BME280;4245;42.120;24.732;2023-05-10T07:50:49;99872.66;;;16.03;83.51
8416;BME280;4245;42.120;24.732;2023-05-10T07:53:16;99879.91;;;16.12;79.74
8416;BME280;4245;42.120;24.732;2023-05-10T07:55:44;99875.09;;;16.06;80.95
8416;BME280;4245;42.120;24.732;2023-05-10T07:58:11;99879.47;;;16.07;79.32
8416;BME280;4245;42.120;24.732;2023-05-10T08:00:38;99888.19;;;16.20;79.80
8416;BME280;4245;42.120;24.732;2023-05-10T08:03:08;99874.19;;;16.17;82.06
8416;BME280;4245;42.120;24.732;2023-05-10T08:05:35;99878.47;;;16.81;77.63
8416;BME280;4245;42.120;24.732;2023-05-10T08:08:01;99885.28;;;16.85;74.42
8416;BME280;4245;42.120;24.732;2023-05-10T08:10:28;99877.28;;;16.65;73.77
8416;BME280;4245;42.120;24.732;2023-05-10T08:12:55;99891.53;;;16.33;75.90
8416;BME280;4245;42.120;24.732;2023-05-10T08:15:23;99898.19;;;16.71;74.24
8416;BME280;4245;42.120;24.732;2023-05-10T08:17:51;99890.53;;;16.87;75.05
8416;BME280;4245;42.120;24.732;2023-05-10T08:20:19;99893.13;;;17.28;71.54
8416;BME280;4245;42.120;24.732;2023-05-10T08:22:46;99899.94;;;17.72;69.87
8416;BME280;4245;42.120;24.732;2023-05-10T08:25:13;99899.53;;;17.87;66.14
8416;BME280;4245;42.120;24.732;2023-05-10T08:27:40;99894.34;;;18.04;67.85
8416;BME280;4245;42.120;24.732;2023-05-10T08:30:08;99881.19;;;18.40;66.68
8416;BME280;4245;42.120;24.732;2023-05-10T08:32:35;99892.66;;;18.51;67.16
8416;BME280;4245;42.120;24.732;2023-05-10T08:35:03;99892.38;;;18.45;65.13
8416;BME280;4245;42.120;24.732;2023-05-10T08:37:32;99894.66;;;18.59;66.54
8416;BME280;4245;42.120;24.732;2023-05-10T08:39:59;99902.31;;;18.54;63.00
8416;BME280;4245;42.120;24.732;2023-05-10T08:42:28;99891.91;;;17.92;66.60
8416;BME280;4245;42.120;24.732;2023-05-10T08:44:57;99891.19;;;17.80;69.17
8416;BME280;4245;42.120;24.732;2023-05-10T08:47:26;99893.22;;;18.26;66.49
8416;BME280;4245;42.120;24.732;2023-05-10T08:49:53;99897.06;;;18.33;64.56
8416;BME280;4245;42.120;24.732;2023-05-10T08:52:22;99892.06;;;17.90;66.15
8416;BME280;4245;42.120;24.732;2023-05-10T08:54:53;99886.41;;;17.84;65.63
8416;BME280;4245;42.120;24.732;2023-05-10T08:57:20;99884.13;;;17.79;66.43
8416;BME280;4245;42.120;24.732;2023-05-10T08:59:47;99885.56;;;17.93;65.63
8416;BME280;4245;42.120;24.732;2023-05-10T09:02:14;99893.63;;;17.93;66.30
8416;BME280;4245;42.120;24.732;2023-05-10T09:04:41;99892.66;;;18.03;67.69
8416;BME280;4245;42.120;24.732;2023-05-10T09:07:08;99891.63;;;17.85;65.35
8416;BME280;4245;42.120;24.732;2023-05-10T09:09:35;99885.06;;;17.59;67.83
8416;BME280;4245;42.120;24.732;2023-05-10T09:12:05;99888.19;;;17.64;67.51
8416;BME280;4245;42.120;24.732;2023-05-10T09:14:35;99883.97;;;17.61;67.99
8416;BME280;4245;42.120;24.732;2023-05-10T09:17:02;99879.63;;;17.49;69.76
8416;BME280;4245;42.120;24.732;2023-05-10T09:19:29;99886.00;;;17.58;69.11
8416;BME280;4245;42.120;24.732;2023-05-10T09:21:56;99867.31;;;17.37;70.24
8416;BME280;4245;42.120;24.732;2023-05-10T09:24:26;99869.31;;;17.54;69.05
8416;BME280;4245;42.120;24.732;2023-05-10T09:26:53;99862.63;;;17.39;70.66
8416;BME280;4245;42.120;24.732;2023-05-10T09:29:22;99869.50;;;17.22;69.74
8416;BME280;4245;42.120;24.732;2023-05-10T09:31:50;99860.56;;;17.52;69.77
8416;BME280;4245;42.120;24.732;2023-05-10T09:34:18;99854.28;;;17.82;70.06
8416;BME280;4245;42.120;24.732;2023-05-10T09:36:51;99852.44;;;17.83;69.93
8416;BME280;4245;42.120;24.732;2023-05-10T09:39:19;99849.63;;;18.13;66.79
8416;BME280;4245;42.120;24.732;2023-05-10T09:41:46;99855.72;;;18.05;67.30
8416;BME280;4245;42.120;24.732;2023-05-10T09:44:17;99850.63;;;18.12;68.52
8416;BME280;4245;42.120;24.732;2023-05-10T09:46:50;99850.88;;;18.47;66.46
8416;BME280;4245;42.120;24.732;2023-05-10T09:49:18;99854.28;;;18.69;62.55
8416;BME280;4245;42.120;24.732;2023-05-10T09:51:45;99845.53;;;18.57;63.27
8416;BME280;4245;42.120;24.732;2023-05-10T09:54:13;99846.31;;;18.86;61.72
8416;BME280;4245;42.120;24.732;2023-05-10T09:56:41;99836.84;;;18.82;61.87
8416;BME280;4245;42.120;24.732;2023-05-10T09:59:10;99838.81;;;18.80;60.67
8416;BME280;4245;42.120;24.732;2023-05-10T10:01:37;99833.84;;;18.85;61.07
8416;BME280;4245;42.120;24.732;2023-05-10T10:04:06;99836.63;;;18.93;61.70
8416;BME280;4245;42.120;24.732;2023-05-10T10:06:37;99831.47;;;19.09;60.80
8416;BME280;4245;42.120;24.732;2023-05-10T10:09:04;99830.50;;;19.10;60.38
8416;BME280;4245;42.120;24.732;2023-05-10T10:11:34;99823.97;;;19.03;60.80
8416;BME280;4245;42.120;24.732;2023-05-10T10:14:01;99818.16;;;19.08;62.08
8416;BME280;4245;42.120;24.732;2023-05-10T10:16:29;99812.03;;;19.70;59.46
8416;BME280;4245;42.120;24.732;2023-05-10T10:18:56;99816.41;;;20.24;57.20
8416;BME280;4245;42.120;24.732;2023-05-10T10:21:25;99819.22;;;20.58;56.73
8416;BME280;4245;42.120;24.732;2023-05-10T10:23:53;99812.59;;;21.04;53.61
8416;BME280;4245;42.120;24.732;2023-05-10T10:26:20;99810.19;;;21.01;53.91
8416;BME280;4245;42.120;24.732;2023-05-10T10:28:51;99817.63;;;20.73;53.67
8416;BME280;4245;42.120;24.732;2023-05-10T10:31:28;99811.81;;;20.60;55.97
8416;BME280;4245;42.120;24.732;2023-05-10T10:34:05;99814.28;;;20.71;55.36
8416;BME280;4245;42.120;24.732;2023-05-10T10:36:40;99811.44;;;20.55;54.94
8416;BME280;4245;42.120;24.732;2023-05-10T10:39:09;99808.78;;;20.63;54.00
8416;BME280;4245;42.120;24.732;2023-05-10T10:41:39;99814.38;;;20.62;55.17
8416;BME280;4245;42.120;24.732;2023-05-10T10:44:37;99815.69;;;20.83;51.55
8416;BME280;4245;42.120;24.732;2023-05-10T10:47:07;99809.72;;;20.72;52.14
8416;BME280;4245;42.120;24.732;2023-05-10T10:49:48;99807.72;;;20.82;51.74
8416;BME280;4245;42.120;24.732;2023-05-10T10:52:23;99814.56;;;20.94;52.78
8416;BME280;4245;42.120;24.732;2023-05-10T10:54:58;99818.00;;;21.38;49.31
8416;BME280;4245;42.120;24.732;2023-05-10T10:57:25;99810.03;;;21.29;48.90
8416;BME280;4245;42.120;24.732;2023-05-10T11:00:18;99814.47;;;21.38;49.69
8416;BME280;4245;42.120;24.732;2023-05-10T11:02:46;99801.88;;;21.62;47.61
8416;BME280;4245;42.120;24.732;2023-05-10T11:05:41;99806.72;;;21.43;49.94
8416;BME280;4245;42.120;24.732;2023-05-10T11:08:19;99808.03;;;22.13;46.06
8416;BME280;4245;42.120;24.732;2023-05-10T11:11:04;99810.34;;;21.84;45.00
8416;BME280;4245;42.120;24.732;2023-05-10T11:13:34;99799.72;;;21.82;45.50
8416;BME280;4245;42.120;24.732;2023-05-10T11:16:12;99796.16;;;21.90;45.43
8416;BME280;4245;42.120;24.732;2023-05-10T11:18:39;99798.22;;;21.96;46.65
8416;BME280;4245;42.120;24.732;2023-05-10T11:21:08;99792.16;;;22.18;46.90
8416;BME280;4245;42.120;24.732;2023-05-10T11:23:50;99802.63;;;22.37;46.14
8416;BME280;4245;42.120;24.732;2023-05-10T11:26:17;99797.72;;;22.08;45.84
8416;BME280;4245;42.120;24.732;2023-05-10T11:28:48;99783.34;;;22.24;45.13
8416;BME280;4245;42.120;24.732;2023-05-10T11:31:17;99785.38;;;22.54;44.71
8416;BME280;4245;42.120;24.732;2023-05-10T11:33:44;99782.63;;;22.71;44.08
8416;BME280;4245;42.120;24.732;2023-05-10T11:36:12;99786.03;;;22.65;44.58
8416;BME280;4245;42.120;24.732;2023-05-10T11:38:39;99783.16;;;23.21;43.35
8416;BME280;4245;42.120;24.732;2023-05-10T11:41:09;99784.19;;;23.59;42.45
8416;BME280;4245;42.120;24.732;2023-05-10T11:43:37;99784.06;;;23.14;43.02
8416;BME280;4245;42.120;24.732;2023-05-10T11:46:05;99786.94;;;23.51;41.73
8416;BME280;4245;42.120;24.732;2023-05-10T11:48:32;99793.91;;;23.76;41.04
8416;BME280;4245;42.120;24.732;2023-05-10T11:51:00;99786.63;;;23.46;40.90
8416;BME280;4245;42.120;24.732;2023-05-10T11:53:29;99786.66;;;22.99;41.53
8416;BME280;4245;42.120;24.732;2023-05-10T11:56:02;99785.00;;;22.58;42.79
8416;BME280;4245;42.120;24.732;2023-05-10T11:58:32;99778.78;;;22.33;42.87
8416;BME280;4245;42.120;24.732;2023-05-10T12:00:59;99781.84;;;21.97;43.01
8416;BME280;4245;42.120;24.732;2023-05-10T12:03:27;99782.75;;;21.56;43.92
8416;BME280;4245;42.120;24.732;2023-05-10T12:05:55;99778.38;;;21.63;43.80
8416;BME280;4245;42.120;24.732;2023-05-10T12:08:23;99770.63;;;21.84;43.96
8416;BME280;4245;42.120;24.732;2023-05-10T12:10:51;99775.41;;;22.15;42.52
8416;BME280;4245;42.120;24.732;2023-05-10T12:13:19;99770.00;;;22.06;43.16
8416;BME280;4245;42.120;24.732;2023-05-10T12:15:48;99770.13;;;21.81;43.19
8416;BME280;4245;42.120;24.732;2023-05-10T12:18:15;99776.34;;;21.57;44.29
8416;BME280;4245;42.120;24.732;2023-05-10T12:20:51;99771.63;;;21.75;44.00
8416;BME280;4245;42.120;24.732;2023-05-10T12:23:20;99759.66;;;21.78;42.55
8416;BME280;4245;42.120;24.732;2023-05-10T12:25:47;99751.22;;;22.05;42.67
8416;BME280;4245;42.120;24.732;2023-05-10T12:28:14;99755.78;;;22.13;43.77
8416;BME280;4245;42.120;24.732;2023-05-10T12:30:40;99754.09;;;21.95;43.22
8416;BME280;4245;42.120;24.732;2023-05-10T12:33:10;99758.13;;;21.83;44.10
8416;BME280;4245;42.120;24.732;2023-05-10T12:35:45;99747.50;;;22.06;44.53
8416;BME280;4245;42.120;24.732;2023-05-10T12:38:26;99753.44;;;22.09;42.41
8416;BME280;4245;42.120;24.732;2023-05-10T12:40:55;99744.13;;;22.20;42.84
8416;BME280;4245;42.120;24.732;2023-05-10T12:43:22;99737.69;;;23.01;41.34
8416;BME280;4245;42.120;24.732;2023-05-10T12:45:49;99737.44;;;22.71;42.19
8416;BME280;4245;42.120;24.732;2023-05-10T12:48:17;99730.44;;;22.05;44.02
8416;BME280;4245;42.120;24.732;2023-05-10T12:50:45;99727.22;;;22.10;44.59
8416;BME280;4245;42.120;24.732;2023-05-10T12:53:12;99725.03;;;22.22;43.90
8416;BME280;4245;42.120;24.732;2023-05-10T12:55:41;99721.44;;;22.13;45.05
8416;BME280;4245;42.120;24.732;2023-05-10T12:58:08;99723.81;;;22.08;44.58
8416;BME280;4245;42.120;24.732;2023-05-10T13:00:35;99711.91;;;21.20;45.24
8416;BME280;4245;42.120;24.732;2023-05-10T13:03:03;99706.56;;;21.02;45.62
8416;BME280;4245;42.120;24.732;2023-05-10T13:05:32;99700.44;;;20.50;48.36
8416;BME280;4245;42.120;24.732;2023-05-10T13:07:59;99705.97;;;20.23;47.87
8416;BME280;4245;42.120;24.732;2023-05-10T13:10:26;99698.72;;;19.98;49.28
8416;BME280;4245;42.120;24.732;2023-05-10T13:12:53;99706.75;;;19.72;48.84
8416;BME280;4245;42.120;24.732;2023-05-10T13:15:20;99697.88;;;20.49;48.00
8416;BME280;4245;42.120;24.732;2023-05-10T13:17:47;99701.69;;;21.96;44.03